Fegulus — E5U2319 — position and weather

sailwx.info

Track history (hours):
 
Tides and Currents Weather Stations Pressure Air Temp Water Temp Dewpoint Dewpoint Depression Visibility Wind Speed Wind Dir Waves Ship Positions

Fegulus

Last reported at 2014-Aug-20 08:33 UTC. Time now 2014-Aug-22 11:49 UTC.
Position N 51°27' E 003°44'.

Length 151 m; draft 6.2 m.

Type: Cargo ship. MMSI: 518369000.

Date/timePositionNaut miles runAvg speedWind from/ knotsBaromVisibWave heightAir tempDewpointWater temp
2014-Aug-20 08:33N 51°27' E 003°44'0 0.0
2014-Aug-20 07:33N 51°27' E 003°44'0 0.0
2014-Aug-20 06:33N 51°27' E 003°44'0 0.0
2014-Aug-20 05:33N 51°27' E 003°44'0 0.0
2014-Aug-20 04:33N 51°27' E 003°44'2 2.0
2014-Aug-20 03:33N 51°27' E 003°40'1313.5
2014-Aug-20 02:33N 51°24' E 003°19'1616.3
2014-Aug-20 01:33N 51°22' E 002°53'1313.2
2014-Aug-20 00:33N 51°22' E 002°32'1717.1
2014-Aug-19 23:33N 51°15' E 002°08'1817.9
2014-Aug-19 22:34N 51°06' E 001°43'14 1.2
2014-Aug-19 10:05N 51°08' E 001°20'1 1.7
2014-Aug-19 09:26N 51°08' E 001°22'7 7.5
2014-Aug-19 08:34N 51°07' E 001°33'1515.4
2014-Aug-19 07:34N 51°18' E 001°50'1313.4
2014-Aug-19 06:33N 51°23' E 002°10'1615.7
2014-Aug-19 05:33N 51°23' E 002°35'1414.4
2014-Aug-19 04:33N 51°23' E 002°58'1716.7
2014-Aug-19 03:33N 51°25' E 003°25'1111.4
2014-Aug-19 02:33N 51°28' E 003°43'1 0.6
2014-Aug-19 01:31N 51°29' E 003°42'0 0.0
2014-Aug-19 00:28N 51°29' E 003°42'0 0.0
2014-Aug-18 23:31N 51°29' E 003°42'0 0.0
2014-Aug-18 22:31N 51°29' E 003°42'0 0.0
2014-Aug-18 21:31N 51°29' E 003°42'0 0.0
2014-Aug-18 20:31N 51°29' E 003°42'0 0.0
2014-Aug-18 19:31N 51°29' E 003°42'0 0.0
2014-Aug-18 18:31N 51°29' E 003°42'0 0.0
2014-Aug-18 17:28N 51°29' E 003°42'0 0.0
2014-Aug-18 16:31N 51°29' E 003°42'0 0.0
2014-Aug-18 15:31N 51°29' E 003°42'0 0.0
2014-Aug-18 14:31N 51°29' E 003°42'0 0.0
2014-Aug-18 13:28N 51°29' E 003°42'0 0.0
2014-Aug-18 12:28N 51°29' E 003°42'0 0.0
2014-Aug-18 11:29N 51°29' E 003°42'0 0.0
2014-Aug-18 10:29N 51°29' E 003°42'0 0.0
2014-Aug-18 09:29N 51°29' E 003°42'0 0.0
2014-Aug-18 08:32N 51°29' E 003°42'0 0.0
2014-Aug-18 07:32N 51°29' E 003°42'0 0.0
2014-Aug-18 06:31N 51°29' E 003°42'0 0.0
2014-Aug-18 05:32N 51°29' E 003°42'0 0.0
2014-Aug-18 04:31N 51°29' E 003°42'0 0.0
2014-Aug-18 03:32N 51°29' E 003°42'0 0.0
2014-Aug-18 02:31N 51°29' E 003°42'0 0.0
2014-Aug-18 01:32N 51°29' E 003°42'0 0.0
2014-Aug-18 00:29N 51°29' E 003°42'51 8.5
2014-Aug-17 18:29N 51°19' E 002°22'1516.1
2014-Aug-17 17:34N 51°13' E 002°00'1818.0
2014-Aug-17 16:34N 51°01' E 001°38'2218.9
2014-Aug-17 15:24N 50°42' E 001°22'1618.6
2014-Aug-17 14:32N 50°31' E 001°03'1918.9
2014-Aug-17 13:33N 50°25' E 000°35'  
2014-Aug-14 08:23N 40°26' W 028°59'1617.9
2014-Aug-14 07:30N 40°17' W 029°16'1817.9
2014-Aug-14 06:29N 40°06' W 029°35'1718.2
2014-Aug-14 05:32N 39°56' W 029°53'1818.2
2014-Aug-14 04:33N 39°46' W 030°12'1817.7
2014-Aug-14 03:33N 39°36' W 030°31'1817.8
2014-Aug-14 02:34N 39°25' W 030°49'1817.7
2014-Aug-14 01:33N 39°14' W 031°08'1817.9
2014-Aug-14 00:33N 39°05' W 031°27'1917.9
2014-Aug-13 23:31N 38°55' W 031°47'2217.8
2014-Aug-13 22:15N 38°42' W 032°11'1317.5
2014-Aug-13 21:30N 38°34' W 032°24'1617.1
2014-Aug-13 20:33N 38°25' W 032°41'1817.4
2014-Aug-13 19:33N 38°14' W 032°60'1817.7
2014-Aug-13 18:32N 38°05' W 033°18'1717.6
2014-Aug-13 17:33N 37°54' W 033°36'  
Track history (hours):
 
Tides and Currents Weather Stations Pressure Air Temp Water Temp Dewpoint Dewpoint Depression Visibility Wind Speed Wind Dir Waves Ship Positions

Fegulus

Last reported at 2014-Aug-20 08:33 UTC. Time now 2014-Aug-22 11:49 UTC.
Position N 51°27' E 003°44'.

Length 151 m; draft 6.2 m.

Type: Cargo ship. MMSI: 518369000.

Date/timePositionNaut miles runAvg speedWind from/ knotsBaromVisibWave heightAir tempDewpointWater temp
2014-Aug-20 08:33N 51°27' E 003°44'0 0.0
2014-Aug-20 07:33N 51°27' E 003°44'0 0.0
2014-Aug-20 06:33N 51°27' E 003°44'0 0.0
2014-Aug-20 05:33N 51°27' E 003°44'0 0.0
2014-Aug-20 04:33N 51°27' E 003°44'2 2.0
2014-Aug-20 03:33N 51°27' E 003°40'1313.5
2014-Aug-20 02:33N 51°24' E 003°19'1616.3
2014-Aug-20 01:33N 51°22' E 002°53'1313.2
2014-Aug-20 00:33N 51°22' E 002°32'1717.1
2014-Aug-19 23:33N 51°15' E 002°08'1817.9
2014-Aug-19 22:34N 51°06' E 001°43'14 1.2
2014-Aug-19 10:05N 51°08' E 001°20'1 1.7
2014-Aug-19 09:26N 51°08' E 001°22'7 7.5
2014-Aug-19 08:34N 51°07' E 001°33'1515.4
2014-Aug-19 07:34N 51°18' E 001°50'1313.4
2014-Aug-19 06:33N 51°23' E 002°10'1615.7
2014-Aug-19 05:33N 51°23' E 002°35'1414.4
2014-Aug-19 04:33N 51°23' E 002°58'1716.7
2014-Aug-19 03:33N 51°25' E 003°25'1111.4
2014-Aug-19 02:33N 51°28' E 003°43'1 0.6
2014-Aug-19 01:31N 51°29' E 003°42'0 0.0
2014-Aug-19 00:28N 51°29' E 003°42'0 0.0
2014-Aug-18 23:31N 51°29' E 003°42'0 0.0
2014-Aug-18 22:31N 51°29' E 003°42'0 0.0
2014-Aug-18 21:31N 51°29' E 003°42'0 0.0
2014-Aug-18 20:31N 51°29' E 003°42'0 0.0
2014-Aug-18 19:31N 51°29' E 003°42'0 0.0
2014-Aug-18 18:31N 51°29' E 003°42'0 0.0
2014-Aug-18 17:28N 51°29' E 003°42'0 0.0
2014-Aug-18 16:31N 51°29' E 003°42'0 0.0
2014-Aug-18 15:31N 51°29' E 003°42'0 0.0
2014-Aug-18 14:31N 51°29' E 003°42'0 0.0
2014-Aug-18 13:28N 51°29' E 003°42'0 0.0
2014-Aug-18 12:28N 51°29' E 003°42'0 0.0
2014-Aug-18 11:29N 51°29' E 003°42'0 0.0
2014-Aug-18 10:29N 51°29' E 003°42'0 0.0
2014-Aug-18 09:29N 51°29' E 003°42'0 0.0
2014-Aug-18 08:32N 51°29' E 003°42'0 0.0
2014-Aug-18 07:32N 51°29' E 003°42'0 0.0
2014-Aug-18 06:31N 51°29' E 003°42'0 0.0
2014-Aug-18 05:32N 51°29' E 003°42'0 0.0
2014-Aug-18 04:31N 51°29' E 003°42'0 0.0
2014-Aug-18 03:32N 51°29' E 003°42'0 0.0
2014-Aug-18 02:31N 51°29' E 003°42'0 0.0
2014-Aug-18 01:32N 51°29' E 003°42'0 0.0
2014-Aug-18 00:29N 51°29' E 003°42'51 8.5
2014-Aug-17 18:29N 51°19' E 002°22'1516.1
2014-Aug-17 17:34N 51°13' E 002°00'1818.0
2014-Aug-17 16:34N 51°01' E 001°38'2218.9
2014-Aug-17 15:24N 50°42' E 001°22'1618.6
2014-Aug-17 14:32N 50°31' E 001°03'1918.9
2014-Aug-17 13:33N 50°25' E 000°35'  
2014-Aug-14 08:23N 40°26' W 028°59'1617.9
2014-Aug-14 07:30N 40°17' W 029°16'1817.9
2014-Aug-14 06:29N 40°06' W 029°35'1718.2
2014-Aug-14 05:32N 39°56' W 029°53'1818.2
2014-Aug-14 04:33N 39°46' W 030°12'1817.7
2014-Aug-14 03:33N 39°36' W 030°31'1817.8
2014-Aug-14 02:34N 39°25' W 030°49'1817.7
2014-Aug-14 01:33N 39°14' W 031°08'1817.9
2014-Aug-14 00:33N 39°05' W 031°27'1917.9
2014-Aug-13 23:31N 38°55' W 031°47'2217.8
2014-Aug-13 22:15N 38°42' W 032°11'1317.5
2014-Aug-13 21:30N 38°34' W 032°24'1617.1
2014-Aug-13 20:33N 38°25' W 032°41'1817.4
2014-Aug-13 19:33N 38°14' W 032°60'1817.7
2014-Aug-13 18:32N 38°05' W 033°18'1717.6
2014-Aug-13 17:33N 37°54' W 033°36'  

Dump ship's entire track history